CSUN New Campus Station -PST Time - Most Recent Data on bottom of page




           Date/Time      Avg      Avg      Max     Wind      Avg      Max      Min      Avg      Avg    Total      Avg     Batt
                         Wind     Wind     Wind      Dir     Temp     Temp     Temp       RH      Bar     Rain    Solar     Volt
                      Spd MPH      Dir  Spd MPH   at Max    Deg_F    Deg_F    Deg_F        % Press_mb   Inches     W/m2      Min
--------------------------------------------------------------------------------------------------------------------------------
    02/19/2017 00:00      0.4      331      1.4      321     47.7     47.8     47.5       90     1007     0.00        0     13.4
    02/19/2017 00:15      0.4      317      1.2      325     47.5     48.0     47.2       90     1007     0.00        0     13.4
    02/19/2017 00:30      0.1      190      1.3      193     47.0     47.3     46.6       90     1007     0.00        0     13.4
    02/19/2017 00:45      0.0        0      0.0      174     46.7     47.0     46.4       90     1007     0.00        0     13.4
    02/19/2017 01:00      1.1      339      2.3      342     47.0     47.2     46.8       90     1007     0.00        0     13.4
    02/19/2017 01:15      0.0      360      1.2        3     46.5     47.2     45.8       90     1007     0.00        0     13.5
    02/19/2017 01:30      0.1        6      0.8        7     46.1     46.3     45.8       91     1007     0.00        0     13.5
    02/19/2017 01:45      0.4      261      2.0      217     45.8     46.2     45.1       90     1007     0.00        0     13.5
    02/19/2017 02:00      0.6      229      1.8      200     45.1     45.5     44.9       91     1007     0.00        0     13.5
    02/19/2017 02:15      0.7      209      1.8      202     45.2     45.7     44.9       91     1007     0.00        0     13.5
    02/19/2017 02:30      0.1      219      0.8      219     45.4     45.7     45.0       91     1007     0.00        0     13.5
    02/19/2017 02:45      0.0      282      0.7      282     45.2     45.5     44.9       91     1008     0.00        0     13.5
    02/19/2017 03:00      0.0      360      0.5        2     45.7     46.4     44.9       91     1008     0.00        0     13.5
    02/19/2017 03:15      0.5      229      2.3      158     46.5     46.8     46.1       91     1008     0.00        0     13.4
    02/19/2017 03:30      0.8      282      2.1      301     46.7     46.9     46.4       91     1008     0.00        0     13.4
    02/19/2017 03:45      0.7      302      2.0      287     46.9     47.2     46.7       91     1008     0.00        0     13.4
    02/19/2017 04:00      1.1      338      2.5      332     47.2     47.6     46.8       91     1008     0.00        0     13.4
    02/19/2017 04:15      0.6       19      2.5       19     47.7     48.1     47.4       91     1008     0.00        0     13.4
    02/19/2017 04:30      1.7        7      3.6        0     48.1     48.5     47.8       91     1009     0.00        0     13.4
    02/19/2017 04:45      1.5      359      3.2       28     48.6     48.9     48.3       91     1009     0.00        0     13.4
    02/19/2017 05:00      1.5      359      3.9        0     48.9     49.1     48.7       91     1009     0.00        0     13.4
    02/19/2017 05:15      0.9      355      2.4      355     49.3     49.5     49.0       91     1009     0.00        0     13.4
    02/19/2017 05:30      0.9      353      1.9      354     49.5     49.8     49.3       90     1009     0.00        0     13.4
    02/19/2017 05:45      0.0        0      0.0      355     49.6     49.8     49.4       90     1009     0.00        0     13.4
    02/19/2017 06:00      0.0      358      0.7      355     49.6     49.8     49.5       90     1009     0.00        0     13.4
    02/19/2017 06:15      1.1      164      3.4      141     49.7     49.9     49.5       90     1009     0.00        0     13.4
    02/19/2017 06:30      1.2      160      2.5      155     49.5     49.8     49.3       89     1009     0.00        0     13.4
    02/19/2017 06:45      0.9      160      2.6      151     49.3     49.5     49.1       89     1010     0.00        2     13.4
    02/19/2017 07:00      0.2      194      1.7      195     49.2     49.5     49.0       89     1010     0.00        4     13.4
    02/19/2017 07:15      0.2      219      1.8      247     49.2     49.4     49.0       89     1011     0.00       11     13.4
    02/19/2017 07:30      0.1      283      1.3      285     49.4     49.6     49.1       89     1011     0.00       21     13.4
    02/19/2017 07:45      0.4      273      1.4      258     49.6     49.9     49.2       89     1011     0.00       48     13.4
    02/19/2017 08:00      0.3      260      1.2      257     50.0     50.4     49.7       89     1011     0.00       58     13.4
    02/19/2017 08:15      0.4       55      1.9       68     50.5     50.9     50.2       89     1011     0.00       62     13.4
    02/19/2017 08:30      1.2       78      3.5      104     51.2     51.7     50.8       88     1011     0.00      104     13.4
    02/19/2017 08:45      1.4      110      4.4      131     51.9     52.2     51.5       86     1012     0.00      102     13.3
    02/19/2017 09:00      2.0      125      6.1      161     52.5     53.1     51.9       85     1012     0.00      162     13.3
    02/19/2017 09:15      2.3      118      6.8       99     53.4     53.8     53.1       82     1012     0.00      185     13.3
    02/19/2017 09:30      2.7      123      6.6       97     53.9     54.1     53.6       80     1013     0.00      174     13.3
    02/19/2017 09:45      2.9      116      6.4       89     53.8     54.1     53.5       79     1013     0.00      119     13.3
    02/19/2017 10:00      2.7      111      6.8      143     54.1     54.5     53.7       78     1013     0.00      173     13.3
    02/19/2017 10:15      3.2      117      9.5      135     54.5     54.8     54.0       76     1013     0.00      193     13.3
    02/19/2017 10:30      3.7      126      9.5      146     54.5     55.0     54.3       76     1013     0.00      188     13.3
    02/19/2017 10:45      4.4      108     10.5      145     54.3     54.8     54.0       80     1014     0.00      206     13.3
    02/19/2017 11:00      4.3      107      8.7      120     54.2     54.6     53.8       80     1014     0.00      187     13.2
    02/19/2017 11:15      3.3      113      7.3      102     54.0     54.3     53.8       81     1014     0.00      140     13.3
    02/19/2017 11:30      2.9      114      7.0       88     54.0     54.6     53.6       81     1014     0.00      173     13.2
    02/19/2017 11:45      4.5      142     10.6      132     55.2     55.9     54.4       74     1014     0.00      328     13.3
    02/19/2017 12:00      3.2      122      7.8      142     56.0     56.3     55.5       74     1014     0.00      240     13.2
    02/19/2017 12:15      3.9      139      8.4      146     55.9     56.3     55.6       72     1014     0.00      141     13.2
    02/19/2017 12:30      5.9      158     10.4      139     56.4     57.6     55.7       68     1014     0.00      304     13.2
    02/19/2017 12:45      5.7      152      9.8      138     57.1     57.7     56.5       69     1014     0.00      192     13.2
    02/19/2017 13:00      5.2      145     10.5      161     56.8     57.0     56.5       66     1014     0.00      179     13.2
    02/19/2017 13:15      4.2      151     10.6      168     57.2     57.5     56.7       65     1014     0.00      179     13.2
    02/19/2017 13:30      5.0      157      7.9      165     57.2     57.5     56.9       66     1014     0.00      136     13.2
    02/19/2017 13:45      3.7      147      7.6      146     57.1     57.3     56.7       66     1014     0.00      168     13.2
    02/19/2017 14:00      4.1      155      9.2      150     57.1     57.4     56.9       66     1014     0.00      133     13.2
    02/19/2017 14:15      3.7      143      7.7      176     57.2     57.5     56.9       65     1014     0.00       98     13.2
    02/19/2017 14:30      4.0      139      7.4      132     56.8     57.0     56.6       66     1014     0.00       82     13.2
    02/19/2017 14:45      2.8      137      6.6      173     56.5     56.7     56.3       68     1014     0.00       60     13.2
    02/19/2017 15:00      4.6      145      8.0      117     56.4     56.7     56.1       68     1014     0.00       55     13.2
    02/19/2017 15:15      4.6      149      8.0      141     56.1     56.4     55.7       69     1014     0.00       45     13.2
    02/19/2017 15:30      4.3      155      7.5      151     55.8     56.0     55.6       69     1014     0.00       40     13.3
    02/19/2017 15:45      2.9      140      6.1      144     55.9     56.1     55.7       68     1014     0.00       52     13.3
    02/19/2017 16:00      2.6      149      7.7      170     56.0     56.3     55.8       68     1014     0.00       44     13.3
    02/19/2017 16:15      1.7      130      4.9      134     55.9     56.1     55.7       69     1015     0.00       31     13.3
    02/19/2017 16:30      1.7      132      4.8      151     55.9     56.1     55.7       68     1015     0.00       34     13.3
    02/19/2017 16:45      1.2      132      2.8      154     55.8     56.0     55.5       69     1015     0.00       25     13.3
    02/19/2017 17:00      2.0      135      5.6      142     55.8     56.0     55.6       69     1015     0.00       14     13.3
    02/19/2017 17:15      4.3      155      7.4      148     55.5     55.8     55.0       69     1015     0.00        5     13.3
    02/19/2017 17:30      4.3      154      7.7      152     55.1     55.4     54.8       70     1016     0.00        3     13.3
    02/19/2017 17:45      2.8      151      5.7      145     54.8     55.0     54.5       73     1016     0.00        0     13.3
    02/19/2017 18:00      3.1      163      7.0      157     54.5     54.8     54.2       74     1016     0.00        0     13.3
    02/19/2017 18:15      3.3      190      6.5      182     54.0     54.4     53.6       75     1016     0.00        0     13.3
    02/19/2017 18:30      4.1      187      6.9      180     53.6     53.9     53.4       76     1016     0.01        0     13.3
    02/19/2017 18:45      2.3      200      5.5      165     53.4     53.7     53.1       76     1017     0.00        0     13.3
    02/19/2017 19:00      1.5      213      3.8      220     53.3     53.5     53.1       76     1017     0.00        0     13.3
    02/19/2017 19:15      1.0      233      2.7      254     53.2     53.4     53.0       79     1017     0.00        0     13.3
    02/19/2017 19:30      1.1      237      3.2      258     52.8     53.3     52.4       83     1017     0.02        0     13.3
    02/19/2017 19:45      1.5      199      2.9      178     52.3     52.6     51.9       84     1018     0.01        0     13.3
    02/19/2017 20:00      1.8      192      3.9      190     52.0     52.2     51.7       85     1018     0.00        0     13.3
    02/19/2017 20:15      1.3      202      3.8      178     51.9     52.0     51.7       85     1018     0.00        0     13.3
    02/19/2017 20:30      0.3      206      1.8      201     51.9     52.0     51.7       85     1018     0.00        0     13.3
    02/19/2017 20:45      0.0      161      0.9      154     51.9     52.1     51.7       85     1019     0.00        0     13.3
    02/19/2017 21:00      0.5      150      1.6      150     52.1     52.3     51.9       86     1019     0.00        0     13.4
    02/19/2017 21:15      1.1      105      4.0      144     52.1     52.4     51.9       86     1019     0.00        0     13.4
    02/19/2017 21:30      0.9      124      2.5      126     52.0     52.2     51.8       85     1019     0.00        0     13.3
    02/19/2017 21:45      0.7      107      2.7      155     52.0     52.2     51.8       86     1019     0.01        0     13.3
    02/19/2017 22:00      0.6       98      2.5       98     52.1     52.3     51.9       87     1020     0.01        0     13.3
    02/19/2017 22:15      1.0       99      2.7       98     52.0     52.2     51.9       87     1020     0.01        0     13.3
    02/19/2017 22:30      0.7       99      2.7       86     51.9     52.2     51.6       88     1020     0.00        0     13.3
    02/19/2017 22:45      0.7      112      2.3      128     51.7     51.9     51.5       88     1020     0.01        0     13.3
    02/19/2017 23:00      0.7      121      2.5      114     51.5     51.9     51.3       89     1020     0.01        0     13.3
    02/19/2017 23:15      1.2      100      3.0       84     51.4     51.5     51.1       89     1020     0.01        0     13.4
    02/19/2017 23:30      0.7      122      2.5      131     51.2     51.4     51.1       89     1020     0.01        0     13.3
    02/19/2017 23:45      1.5      137      3.9      145     51.2     51.4     50.9       90     1020     0.00        0     13.4
    02/20/2017 00:00      1.0      129      3.2       91     51.2     51.5     51.1       90     1020     0.00        0     13.4
    02/20/2017 00:15      1.4      112      3.9       94     51.3     51.5     50.9       90     1020     0.01        0     13.3
    02/20/2017 00:30      3.3       90      6.4      100     50.8     51.1     50.5       90     1020     0.02        0     13.4
    02/20/2017 00:45      3.2       89      6.6       67     50.6     50.8     50.4       90     1020     0.01        0     13.4
    02/20/2017 01:00      2.7       85      6.0       76     50.6     50.8     50.4       90     1020     0.01        0     13.4
    02/20/2017 01:15      3.1       83      6.5       67     50.5     50.7     50.3       90     1021     0.01        0     13.4
    02/20/2017 01:30      3.2       83      7.7       68     50.4     50.6     50.2       90     1021     0.01        0     13.4
    02/20/2017 01:45      2.8       86      5.3       84     50.3     50.5     50.2       91     1021     0.00        0     13.4
    02/20/2017 02:00      2.5       87      5.1       75     50.3     50.5     50.0       91     1021     0.00        0     13.4
    02/20/2017 02:15      3.1       87      6.7       74     50.1     50.3     49.9       91     1020     0.00        0     13.4
    02/20/2017 02:30      2.1       93      5.3       91     50.1     50.4     49.9       91     1020     0.00        0     13.4
    02/20/2017 02:45      1.9       92      5.2       93     50.0     50.3     49.8       91     1020     0.00        0     13.4
    02/20/2017 03:00      2.6       88      6.6       65     49.9     50.2     49.7       91     1020     0.01        0     13.4
    02/20/2017 03:15      1.6       87      3.9       85     49.8     50.0     49.6       91     1020     0.00        0     13.4
    02/20/2017 03:30      2.5       80      6.0       87     49.9     50.1     49.7       91     1020     0.00        0     13.4
    02/20/2017 03:45      2.0       88      4.1       56     49.9     50.1     49.7       90     1021     0.00        0     13.4
    02/20/2017 04:00      3.3       91      6.4       89     49.8     50.0     49.4       91     1021     0.00        0     13.4
    02/20/2017 04:15      3.4       83      7.1       89     49.6     49.9     49.4       91     1021     0.01        0     13.4
    02/20/2017 04:30      2.3       85      6.0       89     49.7     49.9     49.6       91     1021     0.00        0     13.4
    02/20/2017 04:45      2.6       90      6.2       87     49.7     49.9     49.4       91     1021     0.01        0     13.4
    02/20/2017 05:00      1.6       91      4.2       93     49.7     49.9     49.6       91     1021     0.00        0     13.4
    02/20/2017 05:15      2.6       90      6.5      103     49.8     49.9     49.6       91     1021     0.02        0     13.4
    02/20/2017 05:30      1.5       90      5.3       78     49.7     49.9     49.5       91     1021     0.00        0     13.4
    02/20/2017 05:45      2.6       81      5.4       70     49.7     49.9     49.5       91     1021     0.00        0     13.4
    02/20/2017 06:00      1.9       99      7.3       88     49.8     50.0     49.4       91     1021     0.01        0     13.4
    02/20/2017 06:15      2.5       92      6.5       79     49.8     50.0     49.6       91     1022     0.00        0     13.4
    02/20/2017 06:30      2.0       91      4.3       83     49.8     50.0     49.6       91     1022     0.00        0     13.4
    02/20/2017 06:45      2.9       96      6.3      111     49.8     50.0     49.6       91     1022     0.01        1     13.4
    02/20/2017 07:00      2.2       92      5.4       98     49.8     50.0     49.6       91     1022     0.01        4     13.4
    02/20/2017 07:15      2.4       93      8.1       98     49.8     50.1     49.6       91     1022     0.00        9     13.4
    02/20/2017 07:30      2.6       90      6.4       83     49.9     50.1     49.7       91     1022     0.01       11     13.4
    02/20/2017 07:45      3.3       94      7.7       94     49.9     50.2     49.7       91     1023     0.01       16     13.4
    02/20/2017 08:00      2.8      103      6.8      107     50.0     50.2     49.7       91     1023     0.01       19     13.4
    02/20/2017 08:15      2.5       97      5.7       61     50.1     50.4     49.9       91     1023     0.01       30     13.4
    02/20/2017 08:30      2.2      103      6.0       97     50.3     50.5     50.0       91     1023     0.01       39     13.4
    02/20/2017 08:45      2.2      103      5.2      103     50.4     50.7     50.2       91     1023     0.00       50     13.4
    02/20/2017 09:00      1.7      101      5.3       60     50.7     50.9     50.5       91     1023     0.01       50     13.4
    02/20/2017 09:15      1.6      110      4.5      104     50.8     51.1     50.5       91     1023     0.00       47     13.4
    02/20/2017 09:30      1.8      100      7.2       88     51.0     51.3     50.8       91     1024     0.01       48     13.4
    02/20/2017 09:45      2.1      122      6.6      129     51.1     51.3     50.8       91     1024     0.01       57     13.4
    02/20/2017 10:00      2.3      124      8.2      138     51.3     51.5     51.0       91     1024     0.00       72     13.3
    02/20/2017 10:15      2.9      117      7.5      150     51.4     51.6     51.2       91     1024     0.01      114     13.4
    02/20/2017 10:30      2.7      122      5.7      134     51.8     52.0     51.3       91     1024     0.01      125     13.3
    02/20/2017 10:45      2.8      120      5.4      101     52.0     52.3     51.8       91     1024     0.00      112     13.3
    02/20/2017 11:00      3.5      136      7.6      158     52.0     52.2     51.7       91     1024     0.01       93     13.3
    02/20/2017 11:15      3.4      141      7.0      140     52.2     52.5     51.9       91     1024     0.00       98     13.3
    02/20/2017 11:30      3.4      133      7.3      138     52.5     52.8     52.1       91     1024     0.00      118     13.3
    02/20/2017 11:45      3.6      135      8.6      132     52.7     53.1     52.4       91     1024     0.00      126     13.3
    02/20/2017 12:00      3.0      134      7.0      128     53.1     53.4     52.9       91     1024     0.00      103     13.3
    02/20/2017 12:15      3.3      147      7.3      126     53.3     53.6     53.1       91     1024     0.00       84     13.3
    02/20/2017 12:30      2.8      157      5.3      175     53.3     53.6     53.0       91     1024     0.00       81     13.3
    02/20/2017 12:45      2.8      139      6.8      135     53.6     53.8     53.3       91     1023     0.00       84     13.3
    02/20/2017 13:00      3.2      140      7.6      155     53.8     54.3     53.5       91     1023     0.00      120     13.3
    02/20/2017 13:15      3.5      153      5.8      147     54.2     54.3     53.9       91     1023     0.01       84     13.3
    02/20/2017 13:30      1.7      131      5.0      137     54.3     54.6     54.0       91     1023     0.00       95     13.3
    02/20/2017 13:45      3.2      157      6.0      171     54.8     55.3     54.3       91     1023     0.00      106     13.3
    02/20/2017 14:00      3.1      151      6.0      152     55.1     55.4     54.9       90     1022     0.00       82     13.3
    02/20/2017 14:15      4.2      151      9.1      151     55.5     55.8     55.2       89     1022     0.00      124     13.3
    02/20/2017 14:30      4.8      147      8.9      162     55.6     56.0     55.3       88     1022     0.00      132     13.3
    02/20/2017 14:45      4.9      154     10.3      159     56.2     56.6     55.8       87     1022     0.00      140     13.3
    02/20/2017 15:00      5.2      158      9.3      165     56.2     56.5     55.8       86     1023     0.00      109     13.3
    02/20/2017 15:15      4.8      161      8.6      170     56.3     56.6     56.0       85     1023     0.00       99     13.3
    02/20/2017 15:30      4.8      175      8.3      162     56.2     56.6     55.9       86     1023     0.00      104     13.2
    02/20/2017 15:45      4.4      169      9.7      180     56.4     56.7     56.0       84     1023     0.00       87     13.3
    02/20/2017 16:00      4.2      165      8.4      162     56.5     56.7     56.2       84     1023     0.00       72     13.3
    02/20/2017 16:15      4.5      161      7.5      177     56.5     56.7     56.2       84     1023     0.00       57     13.3
    02/20/2017 16:30      3.9      158      6.3      168     56.4     56.6     56.2       84     1023     0.00       37     13.3
    02/20/2017 16:45      3.3      152      6.5      168     56.3     56.5     56.1       84     1023     0.00       30     13.3
    02/20/2017 17:00      2.9      156      5.9      152     56.2     56.4     56.0       85     1023     0.00       21     13.3
    02/20/2017 17:15      2.8      154      4.9      149     56.1     56.3     55.9       85     1024     0.00       10     13.3
    02/20/2017 17:30      2.3      147      5.0      150     55.9     56.0     55.7       86     1024     0.00        9     13.3
    02/20/2017 17:45      1.6      147      3.6      153     55.8     56.0     55.6       86     1024     0.00        2     13.3
    02/20/2017 18:00      2.0      136      4.0      158     55.6     55.8     55.5       87     1024     0.00        0     13.3
    02/20/2017 18:15      2.4      136      5.7      124     55.6     55.8     55.4       87     1024     0.00        0     13.3
    02/20/2017 18:30      2.1      134      4.7      116     55.5     55.7     55.2       87     1024     0.00        0     13.3
    02/20/2017 18:45      2.6      138      5.3      154     55.4     55.6     55.2       88     1024     0.00        0     13.3
    02/20/2017 19:00      2.7      154      5.2      141     55.4     55.6     55.2       88     1024     0.00        0     13.3
    02/20/2017 19:15      3.5      152      7.1      153     55.3     55.5     55.1       88     1024     0.00        0     13.3
    02/20/2017 19:30      2.2      151      4.9      144     55.2     55.4     55.0       89     1025     0.00        0     13.3
    02/20/2017 19:45      2.4      149      6.5      165     55.2     55.3     54.9       89     1025     0.00        0     13.3
    02/20/2017 20:00      1.9      139      3.7      154     55.1     55.3     54.8       89     1025     0.00        0     13.3
    02/20/2017 20:15      1.8      147      4.4      147     55.0     55.2     54.8       89     1025     0.00        0     13.3
    02/20/2017 20:30      1.7      143      4.2      150     55.0     55.3     54.8       90     1025     0.00        0     13.3
    02/20/2017 20:45      1.7      145      3.6      141     55.0     55.3     54.8       90     1025     0.00        0     13.3
    02/20/2017 21:00      1.5      108      4.5      101     55.0     55.3     54.8       90     1025     0.00        0     13.3
    02/20/2017 21:15      0.6      129      2.4      131     55.0     55.3     54.8       90     1025     0.00        0     13.3
    02/20/2017 21:30      0.7      140      1.8      141     55.0     55.3     54.8       90     1025     0.00        0     13.3
    02/20/2017 21:45      1.3      160      2.6      169     55.1     55.3     54.9       90     1025     0.00        0     13.3
    02/20/2017 22:00      0.8      110      2.3       99     55.1     55.3     55.0       90     1025     0.00        0     13.3
    02/20/2017 22:15      0.5      102      2.5       80     55.2     55.3     55.0       90     1025     0.00        0     13.3
    02/20/2017 22:30      1.4       99      3.4       91     55.1     55.3     55.0       91     1025     0.00        0     13.3
    02/20/2017 22:45      1.1      101      2.6      115     55.1     55.3     55.0       91     1025     0.00        0     13.3
    02/20/2017 23:00      1.3       93      2.7       95     55.2     55.4     55.0       91     1025     0.00        0     13.3
    02/20/2017 23:15      0.7      113      2.6       99     55.2     55.4     55.0       91     1025     0.00        0     13.3
    02/20/2017 23:30      0.3      161      1.5      164     55.1     55.3     54.9       91     1025     0.00        0     13.3
    02/20/2017 23:45      0.0        0      0.0      175     55.0     55.2     54.9       91     1025     0.00        0     13.3
    02/21/2017 00:00      0.1      137      1.6      124     55.0     55.2     54.8       91     1025     0.00        0     13.3
    02/21/2017 00:15      0.0       97      1.1       96     55.0     55.3     54.8       91     1025     0.00        0     13.3
    02/21/2017 00:30      0.0        0      0.0      144     55.0     55.2     54.8       91     1025     0.00        0     13.3
    02/21/2017 00:45      0.6      269      2.2      300     55.1     55.3     54.9       91     1026     0.00        0     13.3
    02/21/2017 01:00      0.8      266      3.7      258     55.2     55.4     55.0       91     1026     0.00        0     13.3
    02/21/2017 01:15      0.0        0      0.0      246     55.2     55.4     55.0       91     1026     0.00        0     13.3
    02/21/2017 01:30      0.0        0      0.0      247     55.1     55.3     55.0       91     1026     0.00        0     13.3
    02/21/2017 01:45      0.0        0      0.0      247     55.0     55.3     54.8       91     1026     0.00        0     13.3
    02/21/2017 02:00      0.0        0      0.0      247     54.9     55.1     54.6       91     1026     0.00        0     13.3
    02/21/2017 02:15      0.0        0      0.0      273     54.8     55.0     54.6       91     1025     0.00        0     13.3
    02/21/2017 02:30      0.0      252      0.9      269     54.8     55.0     54.6       91     1025     0.00        0     13.3
    02/21/2017 02:45      0.0        0      0.0      132     54.8     55.0     54.6       91     1025     0.00        0     13.3
    02/21/2017 03:00      0.0        0      0.0      132     54.7     54.9     54.5       91     1025     0.00        0     13.3
    02/21/2017 03:15      0.0      109      0.8      108     54.7     54.9     54.4       91     1025     0.00        0     13.3
    02/21/2017 03:30      0.1      228      1.0      228     54.5     54.7     54.2       91     1025     0.00        0     13.3
    02/21/2017 03:45      0.0        0      0.0      227     54.5     54.6     54.3       91     1025     0.00        0     13.3
    02/21/2017 04:00      0.0        0      0.0      207     54.5     54.8     54.3       91     1025     0.00        0     13.3
    02/21/2017 04:15      0.0        0      0.0      248     54.5     54.7     54.3       91     1025     0.00        0     13.3
    02/21/2017 04:30      0.4       74      1.5       84     54.5     54.8     54.4       91     1025     0.00        0     13.3
    02/21/2017 04:45      0.0        9      0.6        9     54.5     54.6     54.3       91     1025     0.00        0     13.3
    02/21/2017 05:00      0.7      347      1.7      335     54.5     54.8     54.4       91     1025     0.00        0     13.3
    02/21/2017 05:15      0.1      267      1.2      263     54.4     54.7     54.2       91     1025     0.00        0     13.3
    02/21/2017 05:30      0.0      263      0.8      263     54.2     54.4     54.0       91     1025     0.00        0     13.3
    02/21/2017 05:45      0.2      270      0.9      271     54.3     54.5     54.1       92     1025     0.00        0     13.3
    02/21/2017 06:00      0.1      274      0.9      275     54.2     54.4     54.0       92     1025     0.00        0     13.3
    02/21/2017 06:15      0.6      245      1.6      262     54.1     54.4     53.9       92     1025     0.00        0     13.3
    02/21/2017 06:30      0.8      250      3.4      246     54.1     54.4     53.9       92     1025     0.00        0     13.3
    02/21/2017 06:45      1.1      265      3.4      256     54.2     54.4     54.0       92     1025     0.00        3     13.3
    02/21/2017 07:00      1.2      263      2.6      253     54.2     54.5     54.0       92     1025     0.00        9     13.3
    02/21/2017 07:15      0.0        0      0.0      310     54.3     54.5     54.1       92     1024     0.00       20     13.3
    02/21/2017 07:30      0.6      246      2.1      255     54.4     54.6     54.2       92     1025     0.00       32     13.3
    02/21/2017 07:45      0.1      171      1.2      167     54.6     55.0     54.4       92     1025     0.00       39     13.3
    02/21/2017 08:00      1.1      233      3.9      241     55.0     55.3     54.6       92     1026     0.00       66     13.3
    02/21/2017 08:15      2.9      199      5.4      157     55.1     55.4     54.8       91     1026     0.01       21     13.3
    02/21/2017 08:30      1.0       88      3.0       42     55.2     55.5     55.0       91     1026     0.00       22     13.3
    02/21/2017 08:45      0.4       75      1.8       75     55.3     55.7     55.0       92     1026     0.00      112     13.3
    02/21/2017 09:00      1.4       37      3.6       61     55.8     56.0     55.5       91     1026     0.00       91     13.3
    02/21/2017 09:15      1.6       21      3.6       65     55.9     56.1     55.6       91     1026     0.00       99     13.3
    02/21/2017 09:30      0.8       47      2.9       50     56.5     56.9     56.0       91     1026     0.00      193     13.3
    02/21/2017 09:45      1.3      128      3.3      179     57.4     58.0     56.8       90     1026     0.00      264     13.3
    02/21/2017 10:00      2.9      158      4.9      169     57.4     57.7     56.9       89     1026     0.00      165     13.2
    02/21/2017 10:15      1.6      154      4.6      183     57.7     57.9     57.4       85     1026     0.00      202     13.2
    02/21/2017 10:30      0.8      203      2.8      196     58.2     58.7     57.6       82     1026     0.00      218     13.2
    02/21/2017 10:45      0.4      290      1.6      318     58.7     59.1     58.4       78     1026     0.00      176     13.2
    02/21/2017 11:00      1.6      205      3.8      194     58.8     59.2     58.5       72     1026     0.00      148     13.2
    02/21/2017 11:15      2.5      201      5.4      191     58.8     59.0     58.6       72     1026     0.00      156     13.2
    02/21/2017 11:30      2.3      176      5.6      181     59.1     59.4     58.8       69     1026     0.00      175     13.2
    02/21/2017 11:45      2.0      196      4.3      208     59.2     59.6     59.0       70     1026     0.00      198     13.2
    02/21/2017 12:00      1.2      131      2.8       82     59.8     60.1     59.4       68     1025     0.00      202     13.2
    02/21/2017 12:15      2.3      184      4.7      207     60.1     60.4     59.8       67     1025     0.00      202     13.2
    02/21/2017 12:30      1.9      175      6.2      149     60.6     61.3     59.9       67     1025     0.00      214     13.2
    02/21/2017 12:45      2.6      169      5.6      208     60.7     61.2     60.4       69     1025     0.00      194     13.2
    02/21/2017 13:00      2.4      172      5.2      166     60.8     61.0     60.5       68     1025     0.00      170     13.2
    02/21/2017 13:15      1.8      180      5.2      152     61.2     61.8     60.7       65     1024     0.00      248     13.2
    02/21/2017 13:30      1.8      139      4.5      166     61.5     61.9     61.1       66     1024     0.00      150     13.2
    02/21/2017 13:45      2.2      131      4.3      143     61.3     61.6     61.1       64     1024     0.00      140     13.2
    02/21/2017 14:00      1.8      113      4.3       97     61.4     61.7     61.1       64     1024     0.00      136     13.2
    02/21/2017 14:15      1.2      204      5.3      158     61.3     61.8     61.0       61     1023     0.00      137     13.2
    02/21/2017 14:30      1.6      149      4.2      139     61.8     62.1     61.5       58     1023     0.00      148     13.2
    02/21/2017 14:45      2.1      151      4.6      149     62.2     62.6     61.8       50     1023     0.00      130     13.2
    02/21/2017 15:00      2.8      198      5.8      178     62.1     62.4     61.7       49     1023     0.00      136     13.2
    02/21/2017 15:15      2.9      188      5.7      182     62.0     62.3     61.8       49     1023     0.00      144     13.2
    02/21/2017 15:30      3.0      193      7.3      155     62.4     62.7     62.1       47     1023     0.00      145     13.2
    02/21/2017 15:45      4.6      165      7.2      187     62.1     62.5     61.6       52     1023     0.00       87     13.2
    02/21/2017 16:00      2.9      172      6.4      149     61.7     62.0     61.4       55     1023     0.00       74     13.2
    02/21/2017 16:15      2.5      195      4.4      184     61.4     61.8     61.0       57     1023     0.00       53     13.2
    02/21/2017 16:30      2.3      229      6.7      262     60.8     61.2     60.2       63     1023     0.00       46     13.2
    02/21/2017 16:45      2.7      259      7.3      241     59.2     60.4     58.0       73     1023     0.00       40     13.2
    02/21/2017 17:00      0.2      293      1.5      243     57.5     58.2     57.0       80     1023     0.02       27     13.2
    02/21/2017 17:15      0.8      103      2.9      131     56.5     57.2     56.1       84     1023     0.00       27     13.2
    02/21/2017 17:30      0.7       97      2.5      105     55.9     56.2     55.5       85     1023     0.00       11     13.2
    02/21/2017 17:45      1.7       75      3.4       72     55.7     55.9     55.5       86     1023     0.00        2     13.3
    02/21/2017 18:00      2.6       85      5.1       89     55.7     55.9     55.4       87     1023     0.00        0     13.3
    02/21/2017 18:15      1.8       84      4.8       73     55.4     55.7     55.0       86     1023     0.00        0     13.3
    02/21/2017 18:30      2.5       72      5.7      108     55.0     55.3     54.7       85     1023     0.00        0     13.3
    02/21/2017 18:45      2.6       70      4.4       67     54.8     55.0     54.6       82     1023     0.00        0     13.3
    02/21/2017 19:00      1.6       70      3.7       72     54.8     55.0     54.6       82     1023     0.00        0     13.3
    02/21/2017 19:15      0.3      128      2.1       81     54.9     55.1     54.7       82     1023     0.00        0     13.3
    02/21/2017 19:30      0.2       68      1.6       51     54.9     55.1     54.6       82     1023     0.00        0     13.3
    02/21/2017 19:45      0.7      343      2.5        0     54.6     54.9     54.3       84     1023     0.00        0     13.3
    02/21/2017 20:00      0.4      253      1.4        8     54.1     54.5     53.7       85     1023     0.00        0     13.3
    02/21/2017 20:15      0.3      271      1.8      244     53.9     54.2     53.7       86     1023     0.00        0     13.3
    02/21/2017 20:30      1.0      269      2.5      250     53.6     53.9     53.3       87     1023     0.00        0     13.3
    02/21/2017 20:45      0.4      267      1.6      262     53.3     53.6     53.0       88     1023     0.00        0     13.3
    02/21/2017 21:00      0.6      283      2.4      248     53.1     53.4     52.8       88     1023     0.00        0     13.3
    02/21/2017 21:15      0.3      309      1.1      288     53.1     53.3     52.6       89     1023     0.00        0     13.3
    02/21/2017 21:30      1.9      258      3.6      259     52.5     53.0     52.2       89     1023     0.00        0     13.3
    02/21/2017 21:45      1.2      275      2.9      310     52.6     52.8     52.3       90     1023     0.00        0     13.4
    02/21/2017 22:00      1.0      299      2.6      302     52.6     52.9     52.4       90     1023     0.00        0     13.4
    02/21/2017 22:15      0.0      158      0.1      158     52.3     52.8     51.9       90     1022     0.00        0     13.4
    02/21/2017 22:30      0.0        0      0.0      167     51.9     52.1     51.6       90     1022     0.00        0     13.4
    02/21/2017 22:45      0.1      224      1.1      233     51.4     52.0     50.9       90     1022     0.00        0     13.4
    02/21/2017 23:00      1.2      262      2.9      254     51.2     51.5     51.0       90     1022     0.00        0     13.4
    02/21/2017 23:15      1.2      258      2.7      259     51.3     51.6     51.1       90     1022     0.00        0     13.4
    02/21/2017 23:30      0.9      278      2.0      290     51.2     51.5     51.0       91     1022     0.00        0     13.4
    02/21/2017 23:45      0.3      255      2.0      273     51.3     51.6     51.0       91     1022     0.00        0     13.4
    02/22/2017 00:00      1.1      250      3.6      248     51.2     51.4     50.9       91     1022     0.00        0     13.4
    02/22/2017 00:15      3.7      248      7.2      253     51.9     52.5     51.2       91     1022     0.00        0     13.4
    02/22/2017 00:30      3.7      239     10.0      218     52.4     52.7     52.0       90     1022     0.00        0     13.4
    02/22/2017 00:45      1.5      245      4.8      250     52.1     52.3     51.9       89     1022     0.00        0     13.4
    02/22/2017 01:00      0.5       12      1.8       10     51.8     52.2     51.5       89     1021     0.00        0     13.4
    02/22/2017 01:15      0.4      231      2.1      238     51.1     51.6     50.5       89     1021     0.00        0     13.4
    02/22/2017 01:30      0.4      217      1.4      199     50.5     50.7     50.4       90     1021     0.00        0     13.4
    02/22/2017 01:45      0.3      236      1.1      217     50.3     50.9     49.6       90     1021     0.00        0     13.4
    02/22/2017 02:00      0.3      253      2.1      266     49.7     49.8     49.5       90     1021     0.01        0     13.4
    02/22/2017 02:15      1.3      272      3.2      252     48.9     49.6     48.6       90     1021     0.00        0     13.4
    02/22/2017 02:30      0.3       21      1.8        0     49.0     49.2     48.6       90     1020     0.00        0     13.4
    02/22/2017 02:45      0.5      318      1.4      339     48.3     48.8     47.9       90     1020     0.00        0     13.4
    02/22/2017 03:00      1.4      217      2.7      207     47.5     48.3     47.0       90     1020     0.00        0     13.4
    02/22/2017 03:15      0.4      257      2.8      245     47.6     47.9     47.1       91     1020     0.00        0     13.4
    02/22/2017 03:30      0.7      347      2.1      350     47.7     48.0     47.3       91     1020     0.00        0     13.4
    02/22/2017 03:45      0.0      345      0.5      345     47.3     47.5     47.0       91     1020     0.00        0     13.4
    02/22/2017 04:00      0.4      356      2.3      344     47.5     47.8     47.0       91     1020     0.00        0     13.4
    02/22/2017 04:15      0.7      282      3.6      234     47.0     47.3     46.5       91     1020     0.00        0     13.4
    02/22/2017 04:30      0.7      339      2.4      348     46.8     47.1     46.5       91     1020     0.00        0     13.5
    02/22/2017 04:45      0.2      104      1.4      145     46.2     46.9     45.9       91     1020     0.00        0     13.5
    02/22/2017 05:00      0.8      121      1.9      154     46.2     46.4     45.9       91     1020     0.00        0     13.5
    02/22/2017 05:15      0.6      326      2.8      342     45.9     46.1     45.5       91     1019     0.00        0     13.5
    02/22/2017 05:30      0.7      345      1.8      344     45.6     46.0     45.4       91     1019     0.00        0     13.5
    02/22/2017 05:45      0.2      307      1.4      335     45.6     46.0     45.2       91     1019     0.00        0     13.5
    02/22/2017 06:00      0.7      333      1.9      347     45.3     45.8     44.8       91     1019     0.00        0     13.5
    02/22/2017 06:15      0.5       29      1.7       21     45.7     46.0     45.4       91     1019     0.00        0     13.5
    02/22/2017 06:30      0.0        0      0.0        3     45.0     45.6     44.4       91     1019     0.00        1     13.5
    02/22/2017 06:45      0.0        0      0.0        2     44.0     44.4     43.6       91     1019     0.00        7     13.5
    02/22/2017 07:00      0.9      352      1.8      351     44.5     44.9     43.9       91     1019     0.00       16     13.5
    02/22/2017 07:15      0.4      348      2.1      344     44.5     44.9     44.1       91     1019     0.00       43     13.5
    02/22/2017 07:30      0.3      347      1.5      346     45.3     46.4     44.3       91     1019     0.00       91     13.5
    02/22/2017 07:45      0.6      341      1.8        1     47.1     48.3     46.1       92     1019     0.00      159     13.4
    02/22/2017 08:00      0.5      237      2.6      165     49.6     51.3     48.2       91     1020     0.00      207     13.4
    02/22/2017 08:15      0.0      166      0.7      152     51.9     52.4     51.2       89     1019     0.00      254     13.4
    02/22/2017 08:30      1.0      167      2.3      140     52.9     53.9     52.1       83     1019     0.00      300     13.3
    02/22/2017 08:45      2.5      162      4.6      156     54.2     55.1     53.4       75     1019     0.00      342     13.3
    02/22/2017 09:00      2.7      168      5.0      186     55.3     56.0     54.7       71     1019     0.00      387     13.3
    02/22/2017 09:15      2.6      179      5.0      192     56.2     56.7     55.2       66     1019     0.00      428     13.2
    02/22/2017 09:30      2.6      191      4.9      180     56.3     56.9     55.8       63     1019     0.00      466     13.2
    02/22/2017 09:45      2.0      219      4.3      193     56.8     57.4     56.2       59     1019     0.00      503     13.2
    02/22/2017 10:00      3.0      230      7.1      181     57.5     58.0     56.7       57     1019     0.00      539     13.2
    02/22/2017 10:15      1.9      268      4.3      227     58.0     58.8     57.2       53     1019     0.00      572     13.2
    02/22/2017 10:30      2.0      257      5.3      189     58.6     59.7     57.7       52     1019     0.00      605     13.1
    02/22/2017 10:45      3.2      207      7.2      187     59.3     60.2     58.7       49     1019     0.00      639     13.1
    02/22/2017 11:00      2.0      272      5.8      255     60.5     61.2     59.5       39     1019     0.00      674     13.1
    02/22/2017 11:15      2.5      140      6.1       70     60.5     61.2     59.5       39     1018     0.00      697     13.1
    02/22/2017 11:30      3.4      175      8.6      165     61.0     61.7     60.3       45     1018     0.00      716     13.1
    02/22/2017 11:45      2.2      130      5.3       70     62.0     62.8     60.9       39     1018     0.00      734     13.1
    02/22/2017 12:00      2.3      102      6.0       84     62.0     62.9     61.3       40     1018     0.00      585     13.1
    02/22/2017 12:15      2.9      168      6.2      160     60.8     62.3     60.1       44     1017     0.00      254     13.1
    02/22/2017 12:30      2.2      137      6.4      116     60.2     61.0     59.5       39     1017     0.00      339     13.1
    02/22/2017 12:45      1.4       11      3.9       18     62.1     62.6     60.8       36     1017     0.00      425     13.1
    02/22/2017 13:00      2.6      105      5.9       77     61.6     62.5     60.9       37     1017     0.00      436     13.1
    02/22/2017 13:15      2.2      130      5.7       77     62.1     63.4     60.8       37     1016     0.00      560     13.1
    02/22/2017 13:30      1.6      111      4.4       72     61.5     63.2     60.6       40     1016     0.00      145     13.1
    02/22/2017 13:45      2.4       95      6.0       92     60.7     61.0     60.3       43     1016     0.00      150     13.1
    02/22/2017 14:00      2.5       89      5.4       73     60.5     60.9     60.0       46     1016     0.00      108     13.1
    02/22/2017 14:15      2.1      117      5.0       91     60.1     60.3     59.8       46     1016     0.00       91     13.1
    02/22/2017 14:30      2.3      109      5.0       92     59.8     60.0     59.6       45     1016     0.00      110     13.2
    02/22/2017 14:45      3.8      143      8.3      151     60.3     60.7     59.8       45     1015     0.00      178     13.2
    02/22/2017 15:00      3.3      146      7.6      130     60.3     60.5     59.9       48     1015     0.00      137     13.2
    02/22/2017 15:15      3.2      223      7.9      288     59.9     60.5     59.7       51     1015     0.00      178     13.2
    02/22/2017 15:30      5.8      257     14.6      235     61.6     62.5     60.4       45     1015     0.00      456     13.1
    02/22/2017 15:45      6.4      263     15.3      236     61.5     61.9     61.1       46     1015     0.00      416     13.1
    02/22/2017 16:00      6.0      271     15.9      263     61.0     61.7     60.4       46     1016     0.00      383     13.1
    02/22/2017 16:15      5.7      280     13.5      241     60.5     61.3     60.0       44     1016     0.00      247     13.1
    02/22/2017 16:30      4.5      315     14.3      350     59.6     60.1     58.9       40     1016     0.00       91     13.1
    02/22/2017 16:45      7.5      344     14.7      326     58.1     59.1     57.2       46     1016     0.00       81     13.2
    02/22/2017 17:00      5.1      349     12.4        1     57.2     57.5     56.9       47     1016     0.00       55     13.2
    02/22/2017 17:15      3.4      332      8.4      354     57.7     58.0     57.3       42     1016     0.00       34     13.2
    02/22/2017 17:30      5.5      329     15.1      325     57.5     57.8     57.1       39     1016     0.00       25     13.2
    02/22/2017 17:45      5.8      338     15.3      347     57.0     57.4     56.6       35     1016     0.00       21     13.2
    02/22/2017 18:00      5.3      340     11.0      333     56.2     56.8     55.7       36     1016     0.00        2     13.3
    02/22/2017 18:15      6.0      337     15.2        3     55.5     56.0     54.9       37     1016     0.00        0     13.3
    02/22/2017 18:30      5.4      331     13.1      328     54.9     55.1     54.6       37     1016     0.00        0     13.3
    02/22/2017 18:45      6.5      334     15.5        5     54.6     55.0     54.3       38     1016     0.00        0     13.3
    02/22/2017 19:00      6.8      333     17.8      352     54.1     54.4     53.7       38     1016     0.00        0     13.3
    02/22/2017 19:15      6.3      337     17.1      350     53.6     54.0     53.2       41     1016     0.00        0     13.3
    02/22/2017 19:30      6.3      327     18.0      342     53.1     53.4     52.8       41     1016     0.00        0     13.3
    02/22/2017 19:45      6.4      336     13.4      350     52.8     53.1     52.6       42     1016     0.00        0     13.3
    02/22/2017 20:00      8.3      339     17.1      352     52.5     52.8     52.2       43     1016     0.00        0     13.3
    02/22/2017 20:15      6.7      341     18.6      354     52.2     52.5     51.9       42     1017     0.00        0     13.4
    02/22/2017 20:30      5.9      340     14.3        6     51.9     52.2     51.6       42     1017     0.00        0     13.4
    02/22/2017 20:45      6.7      344     14.0      353     51.6     51.8     51.4       42     1017     0.00        0     13.4
    02/22/2017 21:00      3.6      340      9.5      332     51.4     51.9     51.1       43     1017     0.00        0     13.4
    02/22/2017 21:15      2.8      310     13.1      341     51.0     51.4     50.5       45     1017     0.00        0     13.4
    02/22/2017 21:30      2.8      299      9.6      354     50.6     50.9     50.2       44     1017     0.00        0     13.4
    02/22/2017 21:45      7.1      333     19.8        0     51.0     51.2     50.5       43     1017     0.00        0     13.4
    02/22/2017 22:00      6.5      343     16.4      343     50.9     51.2     50.6       43     1017     0.00        0     13.4
    02/22/2017 22:15      6.0      336     17.2      344     50.5     50.8     50.2       43     1017     0.00        0     13.4
    02/22/2017 22:30      5.4      339     18.1      333     50.1     50.4     49.9       43     1017     0.00        0     13.4
    02/22/2017 22:45      6.3      342     17.9        0     50.1     50.3     49.9       43     1017     0.00        0     13.4
    02/22/2017 23:00      6.8      340     15.8      339     49.9     50.3     49.6       43     1017     0.00        0     13.4
    02/22/2017 23:15      7.1      342     16.3      353     49.7     49.9     49.5       43     1017     0.00        0     13.4
    02/22/2017 23:30      7.4      345     18.3      341     49.6     49.8     49.4       42     1017     0.00        0     13.4
    02/22/2017 23:45      7.3      343     17.6      341     49.6     49.8     49.3       42     1017     0.00        0     13.4
    02/23/2017 00:00      6.5      343     15.0        0     49.5     49.8     49.2       42     1017     0.00        0     13.4
    02/23/2017 00:15      6.5      343     18.1      345     49.4     49.7     49.2       42     1017     0.00        0     13.4
    02/23/2017 00:30      5.9      345     13.9      331     49.2     49.4     48.8       42     1017     0.00        0     13.4
    02/23/2017 00:45      6.1      339     16.7       11     49.1     49.4     48.8       42     1017     0.00        0     13.4
    02/23/2017 01:00      7.2      341     16.4      323     49.1     49.4     48.9       43     1017     0.00        0     13.4
    02/23/2017 01:15      7.3      344     14.4      337     49.0     49.1     48.7       42     1017     0.00        0     13.4
    02/23/2017 01:30      5.8      345     14.0      352     48.8     49.2     48.4       44     1017     0.00        0     13.4
    02/23/2017 01:45      7.2      338     17.7      324     48.6     48.8     48.3       45     1017     0.00        0     13.4
    02/23/2017 02:00      9.2      337     23.6      347     48.4     48.7     48.2       45     1017     0.00        0     13.4
    02/23/2017 02:15     10.0      335     21.9      319     48.0     48.4     47.6       45     1017     0.00        0     13.4
    02/23/2017 02:30      8.3      341     20.7      266     47.5     48.0     47.2       45     1016     0.00        0     13.4
    02/23/2017 02:45      9.1      341     18.3      346     47.2     47.5     47.0       45     1016     0.00        0     13.4
    02/23/2017 03:00      8.2      347     23.0      345     46.8     47.2     46.4       45     1016     0.00        0     13.4
    02/23/2017 03:15      9.6      337     22.8      320     46.4     46.6     46.1       45     1016     0.00        0     13.5
    02/23/2017 03:30     10.2      344     25.9      327     46.1     46.4     45.9       45     1016     0.00        0     13.5